createdAt,value
2019-02-18T00:00:55.708Z,8.90
2019-02-18T00:03:24.155Z,8.80
2019-02-18T00:05:52.782Z,8.80
2019-02-18T00:08:21.195Z,8.80
2019-02-18T00:11:09.042Z,8.80
2019-02-18T00:13:37.944Z,8.80
2019-02-18T00:16:25.723Z,8.70
2019-02-18T00:18:54.150Z,8.70
2019-02-18T00:21:22.584Z,8.70
2019-02-18T00:23:51.028Z,8.70
2019-02-18T00:26:19.479Z,8.60
2019-02-18T00:28:47.896Z,8.60
2019-02-18T00:31:16.350Z,8.60
2019-02-18T00:33:44.764Z,8.60
2019-02-18T00:36:13.197Z,8.60
2019-02-18T00:38:41.698Z,8.60
2019-02-18T00:41:10.127Z,8.60
2019-02-18T00:43:38.571Z,8.50
2019-02-18T00:46:06.987Z,8.50
2019-02-18T00:48:35.472Z,8.50
2019-02-18T00:51:04.009Z,8.50
2019-02-18T00:53:32.457Z,8.50
2019-02-18T00:56:00.995Z,8.50
2019-02-18T00:58:29.419Z,8.50
2019-02-18T01:00:57.853Z,8.50
2019-02-18T01:03:26.279Z,8.50
2019-02-18T01:05:55.756Z,8.50
2019-02-18T01:08:43.639Z,8.50
2019-02-18T01:11:12.153Z,8.50
2019-02-18T01:13:40.603Z,8.50
2019-02-18T01:16:09.026Z,8.50
2019-02-18T01:18:56.871Z,8.50
2019-02-18T01:21:25.322Z,8.40
2019-02-18T01:23:53.782Z,8.40
2019-02-18T01:26:22.196Z,8.40
2019-02-18T01:29:10.046Z,8.40
2019-02-18T01:31:38.480Z,8.30
2019-02-18T01:34:06.919Z,8.30
2019-02-18T01:36:35.366Z,8.30
2019-02-18T01:39:04.529Z,8.30
2019-02-18T01:41:32.975Z,8.30
2019-02-18T01:44:01.392Z,8.30
2019-02-18T01:46:29.837Z,8.30
2019-02-18T01:48:58.251Z,8.30
2019-02-18T01:51:46.074Z,8.30
2019-02-18T01:54:14.576Z,8.30
2019-02-18T01:56:43.061Z,8.20
2019-02-18T02:02:07.148Z,8.20
2019-02-18T02:04:35.582Z,8.20
2019-02-18T02:07:04.068Z,8.20
2019-02-18T02:09:32.509Z,8.20
2019-02-18T02:12:20.290Z,8.10
2019-02-18T02:14:48.715Z,8.10
2019-02-18T02:17:17.156Z,8.10
2019-02-18T02:19:45.575Z,8.10
2019-02-18T02:22:14.107Z,8.10
2019-02-18T02:24:42.535Z,8.00
2019-02-18T02:27:10.957Z,8.00
2019-02-18T02:29:39.394Z,8.00
2019-02-18T02:32:08.221Z,8.00
2019-02-18T02:34:37.127Z,8.00
2019-02-18T02:37:05.957Z,8.00
2019-02-18T02:39:53.774Z,7.90
2019-02-18T02:42:22.279Z,7.90
2019-02-18T02:44:50.700Z,7.90
2019-02-18T02:47:19.155Z,7.90
2019-02-18T02:49:47.571Z,7.90
2019-02-18T02:52:16.012Z,7.80
2019-02-18T02:54:44.443Z,7.80
2019-02-18T02:57:12.884Z,7.80
2019-02-18T02:59:41.323Z,7.80
2019-02-18T03:02:29.104Z,7.70
2019-02-18T03:04:57.556Z,7.70
2019-02-18T03:07:25.987Z,7.70
2019-02-18T03:09:54.436Z,7.70
2019-02-18T03:12:42.229Z,7.70
2019-02-18T03:15:12.375Z,7.60
2019-02-18T03:17:40.827Z,7.60
2019-02-18T03:20:10.199Z,7.60
2019-02-18T03:22:38.628Z,7.60
2019-02-18T03:25:16.127Z,7.60
2019-02-18T03:27:44.576Z,7.60
2019-02-18T03:30:41.831Z,7.60
2019-02-18T03:33:13.934Z,7.60
2019-02-18T03:35:42.559Z,7.50
2019-02-18T03:38:10.978Z,7.50
2019-02-18T03:40:39.405Z,7.50
2019-02-18T03:43:07.921Z,7.60
2019-02-18T03:45:36.350Z,7.50
2019-02-18T03:48:04.760Z,7.60
2019-02-18T03:50:33.204Z,7.60
2019-02-18T03:53:01.627Z,7.50
2019-02-18T03:55:30.175Z,7.50
2019-02-18T03:57:58.700Z,7.50
2019-02-18T04:00:27.120Z,7.50
2019-02-18T04:02:55.558Z,7.40
2019-02-18T04:05:24.053Z,7.40
2019-02-18T04:07:52.505Z,7.40
2019-02-18T04:10:20.912Z,7.40
2019-02-18T04:12:49.335Z,7.30
2019-02-18T04:15:18.055Z,7.30
2019-02-18T04:17:46.490Z,7.30
2019-02-18T04:20:14.988Z,7.30
2019-02-18T04:22:43.491Z,7.30
2019-02-18T04:25:11.940Z,7.30
2019-02-18T04:27:40.383Z,7.20
2019-02-18T04:30:13.650Z,7.20
2019-02-18T04:32:41.715Z,7.20
2019-02-18T04:35:10.219Z,7.20
2019-02-18T04:37:38.683Z,7.20
2019-02-18T04:40:08.528Z,7.10
2019-02-18T04:42:37.039Z,7.10
2019-02-18T04:45:10.183Z,7.10
2019-02-18T04:47:57.954Z,7.10
2019-02-18T04:50:26.448Z,7.10
2019-02-18T04:52:54.919Z,7.10
2019-02-18T04:55:23.396Z,7.00
2019-02-18T04:57:51.845Z,7.10
2019-02-18T05:00:20.269Z,7.00
2019-02-18T05:02:48.711Z,7.00
2019-02-18T05:05:28.989Z,7.00
2019-02-18T05:07:57.408Z,7.00
2019-02-18T05:13:21.298Z,7.00
2019-02-18T05:15:49.759Z,6.90
2019-02-18T05:18:18.240Z,6.90
2019-02-18T05:20:46.657Z,6.90
2019-02-18T05:23:34.438Z,6.90
2019-02-18T05:26:14.609Z,6.90
2019-02-18T05:28:43.103Z,6.90
2019-02-18T05:31:11.524Z,6.90
2019-02-18T05:33:45.884Z,6.90
2019-02-18T05:36:33.665Z,6.80
2019-02-18T05:39:02.189Z,6.80
2019-02-18T05:41:31.318Z,6.80
2019-02-18T05:44:00.094Z,6.70
2019-02-18T05:46:29.075Z,6.70
2019-02-18T05:48:57.526Z,6.70
2019-02-18T05:51:25.956Z,6.70
2019-02-18T05:53:54.392Z,6.60
2019-02-18T05:56:42.155Z,6.60
2019-02-18T05:59:10.603Z,6.60
2019-02-18T06:01:39.015Z,6.60
2019-02-18T06:04:07.535Z,6.50
2019-02-18T06:06:36.459Z,6.50
2019-02-18T06:09:05.402Z,6.50
2019-02-18T06:11:33.822Z,6.50
2019-02-18T06:14:02.268Z,6.50
2019-02-18T06:16:30.719Z,6.50
2019-02-18T06:19:18.483Z,6.40
2019-02-18T06:21:59.544Z,6.40
2019-02-18T06:24:27.973Z,6.40
2019-02-18T06:26:56.419Z,6.40
2019-02-18T06:29:24.838Z,6.40
2019-02-18T06:31:53.285Z,6.40
2019-02-18T06:34:22.892Z,6.40
2019-02-18T06:37:10.748Z,6.40
2019-02-18T06:39:41.793Z,6.40
2019-02-18T06:42:28.658Z,6.40
2019-02-18T06:44:58.753Z,6.40
2019-02-18T06:47:46.569Z,6.40
2019-02-18T06:50:14.988Z,6.40
2019-02-18T06:52:43.443Z,6.40
2019-02-18T06:55:13.004Z,6.40
2019-02-18T06:58:08.489Z,6.40
2019-02-18T07:00:44.365Z,6.40
2019-02-18T07:03:26.582Z,6.40
2019-02-18T07:05:59.420Z,6.40
2019-02-18T07:11:33.552Z,6.50
2019-02-18T07:14:21.303Z,6.50
2019-02-18T07:16:49.755Z,6.50
2019-02-18T07:19:37.531Z,6.50
2019-02-18T07:22:05.943Z,6.50
2019-02-18T07:24:34.407Z,6.60
2019-02-18T07:29:51.619Z,6.60
2019-02-18T07:32:20.047Z,6.70
2019-02-18T07:34:48.510Z,6.70
2019-02-18T07:37:36.293Z,6.80
2019-02-18T07:40:06.912Z,6.90
2019-02-18T07:42:35.379Z,6.90
2019-02-18T07:45:04.540Z,7.00
2019-02-18T07:47:32.979Z,7.00
2019-02-18T07:50:01.482Z,7.10
2019-02-18T07:52:29.890Z,7.10
2019-02-18T07:55:17.696Z,7.10
2019-02-18T07:57:46.110Z,7.20
2019-02-18T08:00:33.928Z,7.20
2019-02-18T08:03:02.343Z,7.30
2019-02-18T08:05:30.795Z,7.30
2019-02-18T08:07:59.208Z,7.30
2019-02-18T08:10:28.767Z,7.40
2019-02-18T08:13:09.805Z,7.40
2019-02-18T08:15:38.319Z,7.50
2019-02-18T08:18:06.801Z,7.50
2019-02-18T08:20:54.616Z,7.50
2019-02-18T08:23:23.135Z,7.50
2019-02-18T08:26:10.888Z,7.50
2019-02-18T08:28:39.341Z,7.60
2019-02-18T08:31:07.752Z,7.60
2019-02-18T08:33:36.201Z,7.70
2019-02-18T08:36:04.612Z,7.70
2019-02-18T08:38:33.055Z,7.70
2019-02-18T08:41:01.504Z,7.70
2019-02-18T08:43:29.948Z,7.80
2019-02-18T08:45:58.391Z,7.80
2019-02-18T08:48:26.809Z,7.90
2019-02-18T08:50:55.238Z,7.90
2019-02-18T08:56:37.924Z,8.00
2019-02-18T08:59:06.435Z,8.00
2019-02-18T09:01:34.849Z,8.00
2019-02-18T09:04:03.283Z,8.00
2019-02-18T09:06:31.738Z,8.10
2019-02-18T09:09:00.169Z,8.10
2019-02-18T09:11:28.588Z,8.20
2019-02-18T09:13:59.408Z,8.30
2019-02-18T09:16:27.855Z,8.30
2019-02-18T09:18:56.374Z,8.30
2019-02-18T09:21:26.175Z,8.40
2019-02-18T09:23:56.266Z,8.50
2019-02-18T09:26:24.673Z,8.60
2019-02-18T09:28:53.144Z,8.60
2019-02-18T09:31:23.233Z,8.70
2019-02-18T09:33:51.698Z,8.70
2019-02-18T09:36:21.426Z,8.80
2019-02-18T09:38:51.554Z,8.90
2019-02-18T09:41:20.076Z,8.90
2019-02-18T09:43:48.592Z,9.00
2019-02-18T09:46:17.032Z,9.10
2019-02-18T09:48:45.443Z,9.20
2019-02-18T09:51:13.884Z,9.30
2019-02-18T09:53:42.306Z,9.30
2019-02-18T09:56:10.751Z,9.40
2019-02-18T09:58:39.154Z,9.50
2019-02-18T10:01:07.600Z,9.50
2019-02-18T10:03:36.020Z,9.60
2019-02-18T10:06:04.470Z,9.60
2019-02-18T10:08:32.917Z,9.70
2019-02-18T10:11:20.682Z,9.70
2019-02-18T10:13:49.123Z,9.80
2019-02-18T10:16:36.911Z,9.90
2019-02-18T10:19:05.351Z,9.90
2019-02-18T10:21:33.772Z,10.00
2019-02-18T10:24:21.551Z,10.10
2019-02-18T10:26:49.985Z,10.20
2019-02-18T10:29:30.404Z,10.20
2019-02-18T10:31:58.825Z,10.30
2019-02-18T10:34:27.242Z,10.40
2019-02-18T10:37:15.043Z,10.40
2019-02-18T10:39:43.592Z,10.50
2019-02-18T10:42:12.036Z,10.50
2019-02-18T10:44:40.475Z,10.60
2019-02-18T10:47:08.897Z,10.70
2019-02-18T10:49:37.496Z,10.80
2019-02-18T10:52:05.941Z,10.90
2019-02-18T10:54:34.394Z,10.90
2019-02-18T10:57:02.927Z,11.00
2019-02-18T10:59:31.447Z,11.10
2019-02-18T11:01:59.869Z,11.20
2019-02-18T11:04:28.695Z,11.20
2019-02-18T11:06:57.187Z,11.30
2019-02-18T11:09:25.644Z,11.40
2019-02-18T11:12:13.405Z,11.40
2019-02-18T11:14:43.355Z,11.50
2019-02-18T11:17:11.843Z,11.60
2019-02-18T11:19:40.296Z,11.70
2019-02-18T11:22:08.721Z,11.70
2019-02-18T11:24:44.834Z,11.80
2019-02-18T11:27:32.658Z,11.90
2019-02-18T11:30:01.169Z,12.00
2019-02-18T11:32:49.020Z,12.00
2019-02-18T11:35:17.502Z,12.10
2019-02-18T11:38:05.294Z,12.20
2019-02-18T11:40:34.296Z,12.20
2019-02-18T11:43:02.740Z,12.30
2019-02-18T11:45:50.597Z,12.30
2019-02-18T11:48:19.019Z,12.40
2019-02-18T11:51:06.819Z,12.50
2019-02-18T11:53:35.242Z,12.60
2019-02-18T11:56:03.700Z,12.60
2019-02-18T11:58:51.489Z,12.70
2019-02-18T12:01:19.994Z,12.70
2019-02-18T12:04:01.022Z,12.80
2019-02-18T12:06:29.544Z,12.90
2019-02-18T12:08:58.067Z,13.00
2019-02-18T12:11:45.832Z,13.10
2019-02-18T12:14:14.431Z,13.20
2019-02-18T12:16:42.850Z,13.20
2019-02-18T12:19:11.276Z,13.30
2019-02-18T12:21:59.067Z,13.40
2019-02-18T12:24:27.509Z,13.50
2019-02-18T12:26:56.024Z,13.60
2019-02-18T12:29:26.594Z,13.60
2019-02-18T12:32:13.947Z,13.70
2019-02-18T12:34:42.371Z,13.80
2019-02-18T12:37:10.812Z,13.90
2019-02-18T12:39:39.255Z,14.00
2019-02-18T12:42:27.108Z,14.10
2019-02-18T12:44:56.003Z,14.20
2019-02-18T12:47:24.460Z,14.30
2019-02-18T12:49:52.952Z,14.50
2019-02-18T12:52:21.469Z,14.60
2019-02-18T12:54:50.050Z,14.70
2019-02-18T12:57:18.638Z,14.90
2019-02-18T13:00:11.027Z,15.00
2019-02-18T13:02:51.719Z,15.10
2019-02-18T13:05:32.572Z,15.20
2019-02-18T13:08:02.816Z,15.30
2019-02-18T13:10:34.863Z,15.40
2019-02-18T13:13:01.646Z,15.50
2019-02-18T13:15:30.147Z,15.60
2019-02-18T13:17:58.671Z,15.60
2019-02-18T13:20:27.229Z,15.70
2019-02-18T13:22:55.751Z,15.70
2019-02-18T13:25:24.323Z,15.60
2019-02-18T13:27:52.778Z,15.70
2019-02-18T13:30:21.270Z,15.80
2019-02-18T13:32:49.898Z,15.80
2019-02-18T13:35:18.452Z,15.90
2019-02-18T13:38:06.324Z,16.00
2019-02-18T13:40:34.747Z,16.10
2019-02-18T13:43:03.190Z,16.10
2019-02-18T13:45:31.708Z,16.20
2019-02-18T13:48:00.220Z,16.30
2019-02-18T13:50:28.675Z,16.40
2019-02-18T13:52:57.243Z,16.50
2019-02-18T13:55:26.076Z,16.60
2019-02-18T13:57:54.538Z,16.80
2019-02-18T14:00:23.134Z,17.60
2019-02-18T14:02:51.651Z,19.00
2019-02-18T14:05:21.404Z,20.70
2019-02-18T14:08:09.278Z,22.20
2019-02-18T14:10:57.450Z,23.90
2019-02-18T14:13:25.932Z,25.60
2019-02-18T14:18:49.151Z,27.70
2019-02-18T14:21:36.947Z,28.50
2019-02-18T14:24:05.777Z,29.00
2019-02-18T14:26:34.277Z,29.60
2019-02-18T14:29:22.105Z,30.00
2019-02-18T14:32:02.826Z,30.10
2019-02-18T14:34:31.317Z,30.40
2019-02-18T14:36:59.851Z,30.60
2019-02-18T14:39:28.430Z,30.80
2019-02-18T14:41:57.055Z,31.10
2019-02-18T14:44:25.614Z,31.20
2019-02-18T14:46:54.072Z,31.00
2019-02-18T14:49:42.125Z,30.80
2019-02-18T14:52:10.687Z,30.40
2019-02-18T14:54:39.238Z,30.00
2019-02-18T14:57:07.668Z,29.70
2019-02-18T14:59:36.310Z,29.70
2019-02-18T15:02:04.833Z,29.80
2019-02-18T15:04:45.301Z,29.80
2019-02-18T15:07:13.845Z,29.60
2019-02-18T15:09:42.348Z,29.30
2019-02-18T15:12:12.489Z,29.00
2019-02-18T15:14:42.721Z,28.70
2019-02-18T15:17:11.309Z,28.30
2019-02-18T15:19:39.828Z,28.00
2019-02-18T15:22:27.598Z,27.90
2019-02-18T15:24:56.423Z,27.70
2019-02-18T15:27:24.994Z,26.90
2019-02-18T15:30:14.324Z,26.30
2019-02-18T15:32:42.818Z,25.80
2019-02-18T15:35:11.262Z,25.10
2019-02-18T15:37:39.772Z,24.50
2019-02-18T15:40:11.980Z,24.00
2019-02-18T15:42:42.547Z,23.70
2019-02-18T15:45:10.903Z,23.30
2019-02-18T15:47:39.415Z,22.80
2019-02-18T15:50:10.640Z,22.40
2019-02-18T15:52:39.163Z,22.00
2019-02-18T15:55:08.788Z,21.80
2019-02-18T15:57:37.292Z,21.50
2019-02-18T16:00:08.925Z,21.30
2019-02-18T16:02:37.422Z,21.10
2019-02-18T16:05:06.420Z,20.90
2019-02-18T16:07:34.988Z,20.70
2019-02-18T16:10:04.360Z,20.60
2019-02-18T16:12:32.817Z,20.70
2019-02-18T16:15:20.655Z,20.60
2019-02-18T16:17:49.187Z,20.70
2019-02-18T16:20:36.951Z,20.60
2019-02-18T16:23:05.482Z,20.50
2019-02-18T16:25:33.979Z,20.10
2019-02-18T16:28:22.475Z,19.80
2019-02-18T16:31:10.303Z,19.40
2019-02-18T16:33:38.844Z,18.90
2019-02-18T16:36:10.109Z,18.50
2019-02-18T16:38:38.843Z,18.10
2019-02-18T16:41:26.701Z,17.80
2019-02-18T16:44:14.541Z,17.50
2019-02-18T16:46:43.078Z,17.20
2019-02-18T16:49:11.902Z,16.90
2019-02-18T16:51:40.401Z,16.70
2019-02-18T16:54:09.053Z,16.40
2019-02-18T16:56:37.527Z,16.10
2019-02-18T16:59:05.974Z,15.90
2019-02-18T17:04:29.648Z,15.60
2019-02-18T17:06:58.224Z,15.40
2019-02-18T17:09:26.671Z,15.20
2019-02-18T17:11:55.134Z,15.10
2019-02-18T17:14:23.632Z,14.90
2019-02-18T17:16:52.094Z,14.80
2019-02-18T17:19:39.955Z,14.70
2019-02-18T17:22:08.450Z,14.60
2019-02-18T17:24:36.902Z,14.50
2019-02-18T17:27:05.370Z,14.40
2019-02-18T17:29:33.903Z,14.20
2019-02-18T17:34:57.294Z,14.10
2019-02-18T17:37:25.801Z,13.90
2019-02-18T17:39:54.305Z,13.80
2019-02-18T17:42:22.899Z,13.70
2019-02-18T17:44:51.391Z,13.70
2019-02-18T17:47:22.480Z,13.60
2019-02-18T17:49:50.991Z,13.50
2019-02-18T17:52:19.433Z,13.40
2019-02-18T17:55:08.767Z,13.30
2019-02-18T17:57:37.616Z,13.20
2019-02-18T18:00:09.219Z,13.20
2019-02-18T18:02:37.710Z,13.10
2019-02-18T18:05:07.805Z,13.00
2019-02-18T18:07:36.314Z,13.00
2019-02-18T18:10:24.147Z,12.90
2019-02-18T18:12:52.604Z,12.80
2019-02-18T18:15:40.434Z,12.80
2019-02-18T18:18:08.876Z,12.60
2019-02-18T18:20:37.603Z,12.60
2019-02-18T18:23:06.129Z,12.50
2019-02-18T18:25:34.658Z,12.40
2019-02-18T18:28:03.186Z,12.40
2019-02-18T18:30:31.617Z,12.40
2019-02-18T18:33:01.184Z,12.30
2019-02-18T18:35:49.021Z,12.30
2019-02-18T18:38:30.063Z,12.30
2019-02-18T18:40:58.512Z,12.20
2019-02-18T18:43:33.560Z,12.20
2019-02-18T18:45:57.108Z,12.10
2019-02-18T18:48:25.542Z,12.10
2019-02-18T18:50:53.992Z,12.10
2019-02-18T18:53:22.447Z,12.00
2019-02-18T18:55:50.949Z,12.00
2019-02-18T18:58:19.383Z,11.90
2019-02-18T19:00:48.014Z,11.90
2019-02-18T19:03:16.443Z,11.80
2019-02-18T19:05:44.971Z,11.80
2019-02-18T19:08:13.395Z,11.70
2019-02-18T19:10:41.847Z,11.70
2019-02-18T19:13:10.897Z,11.70
2019-02-18T19:15:39.897Z,11.70
2019-02-18T19:18:08.323Z,11.60
2019-02-18T19:20:36.848Z,11.60
2019-02-18T19:23:05.324Z,11.60
2019-02-18T19:25:33.780Z,11.50
2019-02-18T19:28:21.548Z,11.50
2019-02-18T19:30:50.006Z,11.50
2019-02-18T19:33:37.847Z,11.40
2019-02-18T19:36:18.857Z,11.40
2019-02-18T19:38:47.381Z,11.40
2019-02-18T19:41:35.226Z,11.40
2019-02-18T19:44:05.265Z,11.40
2019-02-18T19:46:34.267Z,11.30
2019-02-18T19:49:22.066Z,11.30
2019-02-18T19:51:50.601Z,11.20
2019-02-18T19:54:19.076Z,11.20
2019-02-18T19:56:47.891Z,11.10
2019-02-18T19:59:16.425Z,11.10
2019-02-18T20:01:44.842Z,11.10
2019-02-18T20:04:13.296Z,11.00
2019-02-18T20:06:54.169Z,11.00
2019-02-18T20:09:22.687Z,11.00
2019-02-18T20:12:10.444Z,11.00
2019-02-18T20:14:38.995Z,10.90
2019-02-18T20:17:07.452Z,10.90
2019-02-18T20:19:35.886Z,10.90
2019-02-18T20:22:24.053Z,10.90
2019-02-18T20:24:52.543Z,10.90
2019-02-18T20:27:21.561Z,10.90
2019-02-18T20:29:49.991Z,10.90
2019-02-18T20:32:18.851Z,10.90
2019-02-18T20:34:47.339Z,10.90
2019-02-18T20:37:15.789Z,10.80
2019-02-18T20:39:53.112Z,10.80
2019-02-18T20:42:21.817Z,10.80
2019-02-18T20:44:50.703Z,10.80
2019-02-18T20:47:21.520Z,10.80
2019-02-18T20:49:50.330Z,10.80
2019-02-18T20:52:18.863Z,10.80
2019-02-18T20:54:47.508Z,10.80
2019-02-18T20:57:16.378Z,10.80
2019-02-18T20:59:44.882Z,10.90
2019-02-18T21:02:13.489Z,10.80
2019-02-18T21:04:44.191Z,10.80
2019-02-18T21:07:31.970Z,10.80
2019-02-18T21:10:00.458Z,10.80
2019-02-18T21:12:29.416Z,10.80
2019-02-18T21:14:57.839Z,10.70
2019-02-18T21:17:26.303Z,10.70
2019-02-18T21:19:54.819Z,10.70
2019-02-18T21:22:23.259Z,10.70
2019-02-18T21:24:51.786Z,10.60
2019-02-18T21:27:20.687Z,10.60
2019-02-18T21:29:49.147Z,10.60
2019-02-18T21:32:36.903Z,10.60
2019-02-18T21:35:06.408Z,10.60
2019-02-18T21:37:34.958Z,10.50
2019-02-18T21:40:04.720Z,10.50
2019-02-18T21:42:33.254Z,10.40
2019-02-18T21:45:01.821Z,10.40
2019-02-18T21:47:49.725Z,10.40
2019-02-18T21:50:19.369Z,10.40
2019-02-18T21:53:07.273Z,10.40
2019-02-18T21:55:36.101Z,10.40
2019-02-18T21:58:23.903Z,10.40
2019-02-18T22:00:52.404Z,10.40
2019-02-18T22:03:40.250Z,10.30
2019-02-18T22:06:28.015Z,10.30
2019-02-18T22:08:56.472Z,10.30
2019-02-18T22:11:26.291Z,10.20
2019-02-18T22:13:54.807Z,10.20
2019-02-18T22:16:23.249Z,10.20
2019-02-18T22:18:51.752Z,10.20
2019-02-18T22:21:39.545Z,10.10
2019-02-18T22:24:07.990Z,10.10
2019-02-18T22:26:36.436Z,10.10
2019-02-18T22:29:04.860Z,10.00
2019-02-18T22:31:52.668Z,10.00
2019-02-18T22:34:21.165Z,10.00
2019-02-18T22:36:49.643Z,10.00
2019-02-18T22:39:18.103Z,10.00
2019-02-18T22:41:46.535Z,10.00
2019-02-18T22:44:15.100Z,10.00
2019-02-18T22:46:43.590Z,9.90
2019-02-18T22:49:12.127Z,9.90
2019-02-18T22:54:29.335Z,9.90
2019-02-18T22:56:57.765Z,9.80
2019-02-18T22:59:26.791Z,9.80
2019-02-18T23:02:15.342Z,9.80
2019-02-18T23:04:56.232Z,9.70
2019-02-18T23:07:24.645Z,9.60
2019-02-18T23:09:53.439Z,9.60
2019-02-18T23:12:41.244Z,9.50
2019-02-18T23:18:24.135Z,9.40
2019-02-18T23:21:05.239Z,9.40
2019-02-18T23:23:33.729Z,9.30
2019-02-18T23:26:02.530Z,9.30
2019-02-18T23:28:30.989Z,9.20
2019-02-18T23:30:59.486Z,9.20
2019-02-18T23:33:27.937Z,9.10
2019-02-18T23:35:56.431Z,9.10
2019-02-18T23:38:24.883Z,9.10
2019-02-18T23:41:12.644Z,9.10
2019-02-18T23:43:41.076Z,9.00
2019-02-18T23:46:09.482Z,9.00
2019-02-18T23:48:57.272Z,9.00
2019-02-18T23:51:45.031Z,9.00
2019-02-18T23:54:25.846Z,8.90
2019-02-18T23:56:54.265Z,8.90
2019-02-18T23:59:22.712Z,8.90
